createdAt,value
2022-10-27T00:01:32.969Z,1.90
2022-10-27T00:04:00.245Z,1.83
2022-10-27T00:06:27.521Z,1.92
2022-10-27T00:08:54.799Z,1.42
2022-10-27T00:11:22.057Z,1.73
2022-10-27T00:13:49.436Z,1.75
2022-10-27T00:16:16.791Z,1.70
2022-10-27T00:18:44.911Z,1.67
2022-10-27T00:21:14.005Z,1.80
2022-10-27T00:23:41.510Z,1.63
2022-10-27T00:26:11.338Z,1.33
2022-10-27T00:28:38.640Z,1.52
2022-10-27T00:31:07.402Z,1.40
2022-10-27T00:33:34.722Z,1.45
2022-10-27T00:36:09.001Z,1.65
2022-10-27T00:38:36.460Z,1.40
2022-10-27T00:41:03.714Z,1.33
2022-10-27T00:43:38.703Z,1.50
2022-10-27T00:46:26.311Z,1.35
2022-10-27T00:48:56.043Z,1.33
2022-10-27T00:51:23.726Z,2.28
2022-10-27T00:53:51.310Z,1.23
2022-10-27T00:56:19.424Z,1.63
2022-10-27T00:58:47.284Z,1.33
2022-10-27T01:01:14.726Z,1.60
2022-10-27T01:03:42.172Z,1.33
2022-10-27T01:06:10.185Z,1.40
2022-10-27T01:08:38.123Z,1.75
2022-10-27T01:11:05.424Z,1.42
2022-10-27T01:13:32.715Z,1.83
2022-10-27T01:16:18.834Z,1.52
2022-10-27T01:18:49.282Z,1.85
2022-10-27T01:21:25.623Z,1.30
2022-10-27T01:24:11.465Z,1.73
2022-10-27T01:26:43.670Z,1.58
2022-10-27T01:29:29.028Z,1.75
2022-10-27T01:32:05.382Z,1.80
2022-10-27T01:34:47.368Z,1.50
2022-10-27T01:37:23.150Z,1.90
2022-10-27T01:39:54.584Z,2.00
2022-10-27T01:42:43.080Z,2.00
2022-10-27T01:45:12.478Z,2.35
2022-10-27T01:47:40.175Z,2.40
2022-10-27T01:50:07.756Z,2.00
2022-10-27T01:52:37.785Z,2.05
2022-10-27T01:55:05.377Z,2.22
2022-10-27T01:57:39.199Z,2.20
2022-10-27T02:00:07.756Z,1.80
2022-10-27T02:02:39.868Z,2.25
2022-10-27T02:05:10.334Z,2.17
2022-10-27T02:07:50.305Z,2.35
2022-10-27T02:12:46.146Z,2.78
2022-10-27T02:15:19.787Z,3.03
2022-10-27T02:17:48.859Z,2.70
2022-10-27T02:20:21.237Z,2.80
2022-10-27T02:22:51.494Z,2.65
2022-10-27T02:25:22.192Z,2.63
2022-10-27T02:27:50.339Z,3.33
2022-10-27T02:30:17.877Z,2.83
2022-10-27T02:32:45.379Z,2.70
2022-10-27T02:35:13.495Z,2.65
2022-10-27T02:37:43.797Z,2.78
2022-10-27T02:40:11.365Z,3.22
2022-10-27T02:42:38.658Z,2.95
2022-10-27T02:45:06.134Z,2.55
2022-10-27T02:47:33.425Z,2.60
2022-10-27T02:50:00.772Z,2.60
2022-10-27T02:52:28.051Z,2.72
2022-10-27T02:54:55.501Z,2.42
2022-10-27T02:57:22.818Z,2.40
2022-10-27T02:59:52.833Z,2.13
2022-10-27T03:02:23.468Z,2.30
2022-10-27T03:04:51.354Z,2.08
2022-10-27T03:07:18.854Z,2.00
2022-10-27T03:09:46.131Z,2.10
2022-10-27T03:12:14.233Z,2.17
2022-10-27T03:14:41.554Z,2.00
2022-10-27T03:17:08.839Z,2.40
2022-10-27T03:19:36.147Z,2.10
2022-10-27T03:22:03.490Z,2.08
2022-10-27T03:24:30.798Z,2.13
2022-10-27T03:26:58.090Z,2.10
2022-10-27T03:29:25.450Z,2.00
2022-10-27T03:31:52.731Z,2.20
2022-10-27T03:34:21.066Z,4.53
2022-10-27T03:36:48.823Z,2.40
2022-10-27T03:39:16.121Z,2.20
2022-10-27T03:41:43.535Z,2.38
2022-10-27T03:44:11.115Z,2.25
2022-10-27T03:46:38.397Z,2.65
2022-10-27T03:49:05.723Z,2.53
2022-10-27T03:51:33.060Z,3.00
2022-10-27T03:54:00.349Z,2.50
2022-10-27T03:56:27.722Z,2.63
2022-10-27T03:58:55.031Z,2.60
2022-10-27T04:01:22.686Z,2.90
2022-10-27T04:03:50.183Z,2.60
2022-10-27T04:06:17.534Z,2.75
2022-10-27T04:08:44.823Z,2.47
2022-10-27T04:11:12.173Z,2.50
2022-10-27T04:13:40.953Z,2.80
2022-10-27T04:16:08.570Z,2.75
2022-10-27T04:18:36.222Z,2.25
2022-10-27T04:21:04.720Z,3.38
2022-10-27T04:23:32.014Z,2.92
2022-10-27T04:25:59.678Z,2.53
2022-10-27T04:28:27.064Z,2.38
2022-10-27T04:30:54.975Z,2.28
2022-10-27T04:33:28.042Z,2.58
2022-10-27T04:35:57.792Z,2.17
2022-10-27T04:38:25.147Z,1.80
2022-10-27T04:40:52.528Z,2.03
2022-10-27T04:43:20.864Z,1.83
2022-10-27T04:45:49.062Z,1.77
2022-10-27T04:48:16.441Z,1.83
2022-10-27T04:50:44.468Z,1.60
2022-10-27T04:53:11.848Z,2.13
2022-10-27T04:55:39.128Z,1.80
2022-10-27T04:58:09.303Z,3.20
2022-10-27T05:00:36.956Z,2.10
2022-10-27T05:03:04.511Z,2.00
2022-10-27T05:05:31.926Z,2.40
2022-10-27T05:08:03.841Z,2.05
2022-10-27T05:10:32.143Z,2.03
2022-10-27T05:12:59.567Z,1.90
2022-10-27T05:15:27.284Z,2.15
2022-10-27T05:17:54.779Z,2.25
2022-10-27T05:20:22.674Z,2.28
2022-10-27T05:22:50.294Z,2.20
2022-10-27T05:25:18.255Z,1.60
2022-10-27T05:27:45.613Z,2.03
2022-10-27T05:30:13.321Z,1.65
2022-10-27T05:32:44.905Z,1.83
2022-10-27T05:35:14.616Z,1.60
2022-10-27T05:37:45.544Z,1.38
2022-10-27T05:40:12.954Z,2.05
2022-10-27T05:42:40.268Z,3.80
2022-10-27T05:45:07.837Z,2.10
2022-10-27T05:47:35.241Z,1.65
2022-10-27T05:50:02.759Z,2.05
2022-10-27T05:52:30.091Z,2.20
2022-10-27T05:54:57.451Z,2.30
2022-10-27T05:57:24.771Z,7.55
2022-10-27T05:59:52.103Z,2.65
2022-10-27T06:02:19.579Z,2.60
2022-10-27T06:04:46.981Z,2.88
2022-10-27T06:07:14.332Z,2.97
2022-10-27T06:09:41.665Z,4.05
2022-10-27T06:12:08.938Z,1.98
2022-10-27T06:14:36.255Z,2.33
2022-10-27T06:17:03.535Z,2.08
2022-10-27T06:19:30.841Z,1.45
2022-10-27T06:21:58.522Z,2.10
2022-10-27T06:24:25.891Z,1.70
2022-10-27T06:26:56.151Z,1.40
2022-10-27T06:29:24.376Z,1.40
2022-10-27T06:31:51.312Z,1.85
2022-10-27T06:34:18.241Z,2.15
2022-10-27T06:36:45.542Z,1.52
2022-10-27T06:39:12.403Z,1.48
2022-10-27T06:41:39.301Z,2.17
2022-10-27T06:44:06.262Z,1.55
2022-10-27T06:46:34.604Z,1.70
2022-10-27T06:49:01.847Z,1.90
2022-10-27T06:51:28.824Z,1.80
2022-10-27T06:53:55.726Z,1.70
2022-10-27T06:56:22.633Z,2.22
2022-10-27T06:58:53.198Z,1.98
2022-10-27T07:01:21.340Z,2.00
2022-10-27T07:03:48.270Z,2.15
2022-10-27T07:06:15.168Z,2.08
2022-10-27T07:08:42.128Z,1.95
2022-10-27T07:11:09.818Z,1.92
2022-10-27T07:13:36.881Z,2.13
2022-10-27T07:16:03.758Z,1.40
2022-10-27T07:18:32.653Z,1.50
2022-10-27T07:20:59.597Z,1.60
2022-10-27T07:23:26.450Z,2.17
2022-10-27T07:25:53.341Z,1.90
2022-10-27T07:28:20.267Z,1.80
2022-10-27T07:30:48.437Z,1.42
2022-10-27T07:33:15.436Z,1.80
2022-10-27T07:35:42.346Z,2.00
2022-10-27T07:38:09.407Z,1.80
2022-10-27T07:40:36.446Z,2.05
2022-10-27T07:43:05.314Z,2.03
2022-10-27T07:45:39.301Z,2.03
2022-10-27T07:48:07.903Z,3.72
2022-10-27T07:50:35.427Z,2.90
2022-10-27T07:53:03.266Z,2.03
2022-10-27T07:55:32.460Z,2.03
2022-10-27T07:58:08.082Z,2.97
2022-10-27T08:00:37.613Z,2.13
2022-10-27T08:03:06.808Z,1.95
2022-10-27T08:05:35.383Z,1.80
2022-10-27T08:08:04.415Z,2.95
2022-10-27T08:10:33.511Z,1.77
2022-10-27T08:13:00.554Z,1.70
2022-10-27T08:15:27.793Z,1.60
2022-10-27T08:17:58.081Z,1.60
2022-10-27T08:20:25.818Z,1.70
2022-10-27T08:22:56.956Z,1.33
2022-10-27T08:25:24.314Z,1.67
2022-10-27T08:27:51.877Z,2.42
2022-10-27T08:30:20.311Z,1.55
2022-10-27T08:32:48.856Z,1.65
2022-10-27T08:35:17.057Z,1.50
2022-10-27T08:37:43.915Z,1.50
2022-10-27T08:40:11.754Z,1.40
2022-10-27T08:42:48.113Z,1.10
2022-10-27T08:45:29.120Z,1.30
2022-10-27T08:47:58.280Z,1.60
2022-10-27T08:50:29.037Z,1.70
2022-10-27T08:53:01.099Z,1.30
2022-10-27T08:55:38.634Z,1.30
2022-10-27T08:58:27.219Z,1.48
2022-10-27T09:01:00.505Z,1.65
2022-10-27T09:03:55.239Z,1.60
2022-10-27T09:06:29.415Z,1.90
2022-10-27T09:09:02.310Z,1.67
2022-10-27T09:11:57.831Z,2.00
2022-10-27T09:15:12.787Z,1.60
2022-10-27T09:17:48.659Z,1.60
2022-10-27T09:20:36.622Z,2.00
2022-10-27T09:23:09.586Z,1.88
2022-10-27T09:25:39.965Z,1.55
2022-10-27T09:28:10.371Z,1.30
2022-10-27T09:30:38.054Z,1.40
2022-10-27T09:33:19.997Z,1.80
2022-10-27T09:35:47.814Z,1.50
2022-10-27T09:38:18.135Z,2.55
2022-10-27T09:40:45.194Z,2.38
2022-10-27T09:43:12.287Z,1.60
2022-10-27T09:45:41.132Z,1.80
2022-10-27T09:48:17.526Z,1.67
2022-10-27T09:51:01.327Z,1.80
2022-10-27T09:53:48.154Z,1.80
2022-10-27T09:56:25.373Z,1.95
2022-10-27T09:58:58.870Z,2.15
2022-10-27T10:01:27.738Z,2.22
2022-10-27T10:04:10.310Z,1.80
2022-10-27T10:06:40.617Z,1.75
2022-10-27T10:09:23.163Z,2.00
2022-10-27T10:11:51.277Z,1.85
2022-10-27T10:14:23.630Z,1.58
2022-10-27T10:16:52.289Z,1.80
2022-10-27T10:19:25.233Z,1.80
2022-10-27T10:21:58.055Z,1.70
2022-10-27T10:24:26.727Z,1.60
2022-10-27T10:26:58.350Z,1.92
2022-10-27T10:29:35.161Z,1.42
2022-10-27T10:32:13.018Z,1.45
2022-10-27T10:34:43.121Z,1.90
2022-10-27T10:37:35.456Z,1.70
2022-10-27T10:40:14.606Z,2.08
2022-10-27T10:42:45.254Z,1.60
2022-10-27T10:45:23.386Z,1.70
2022-10-27T10:48:00.200Z,1.90
2022-10-27T10:50:28.562Z,1.80
2022-10-27T10:52:57.740Z,1.52
2022-10-27T10:55:33.861Z,2.15
2022-10-27T10:58:01.949Z,2.70
2022-10-27T11:00:29.423Z,2.40
2022-10-27T11:03:04.371Z,2.42
2022-10-27T11:05:36.168Z,4.20
2022-10-27T11:08:05.506Z,3.13
2022-10-27T11:10:37.703Z,2.90
2022-10-27T11:13:15.350Z,2.10
2022-10-27T11:15:51.180Z,2.30
2022-10-27T11:18:25.286Z,2.30
2022-10-27T11:21:07.009Z,2.08
2022-10-27T11:23:56.372Z,1.80
2022-10-27T11:26:30.631Z,2.80
2022-10-27T11:29:03.637Z,1.90
2022-10-27T11:32:02.809Z,2.33
2022-10-27T11:34:38.698Z,2.13
2022-10-27T11:37:31.713Z,1.83
2022-10-27T11:40:23.226Z,2.08
2022-10-27T11:43:07.952Z,2.28
2022-10-27T11:45:45.927Z,1.92
2022-10-27T11:48:15.559Z,1.80
2022-10-27T11:51:04.607Z,1.70
2022-10-27T11:53:33.382Z,1.70
2022-10-27T11:56:21.814Z,2.33
2022-10-27T11:59:36.139Z,2.47
2022-10-27T12:02:06.082Z,2.20
2022-10-27T12:04:48.817Z,2.75
2022-10-27T12:07:30.490Z,2.00
2022-10-27T12:10:15.466Z,3.70
2022-10-27T12:12:46.603Z,1.60
2022-10-27T12:15:26.567Z,1.80
2022-10-27T12:18:02.776Z,1.80
2022-10-27T12:20:49.635Z,1.48
2022-10-27T12:23:21.917Z,1.15
2022-10-27T12:26:08.063Z,4.00
2022-10-27T12:28:35.942Z,1.73
2022-10-27T12:31:09.481Z,1.35
2022-10-27T12:33:57.140Z,2.53
2022-10-27T12:36:56.986Z,2.10
2022-10-27T12:41:55.749Z,2.00
2022-10-27T12:44:32.011Z,1.50
2022-10-27T12:47:17.450Z,1.55
2022-10-27T12:50:05.355Z,3.38
2022-10-27T12:52:36.786Z,1.45
2022-10-27T12:55:27.838Z,1.45
2022-10-27T12:57:57.726Z,1.80
2022-10-27T13:03:21.079Z,1.67
2022-10-27T13:05:59.730Z,6.68
2022-10-27T13:08:55.824Z,3.05
2022-10-27T13:12:01.346Z,3.13
2022-10-27T13:15:09.838Z,3.03
2022-10-27T13:17:48.090Z,3.05
2022-10-27T13:20:52.392Z,2.45
2022-10-27T13:23:33.128Z,2.70
2022-10-27T13:26:24.384Z,2.80
2022-10-27T13:29:06.252Z,2.45
2022-10-27T13:31:33.137Z,2.78
2022-10-27T13:34:03.211Z,4.07
2022-10-27T13:36:30.462Z,4.13
2022-10-27T13:39:15.994Z,3.03
2022-10-27T13:42:01.308Z,2.60
2022-10-27T13:44:33.808Z,2.60
2022-10-27T13:47:03.721Z,2.72
2022-10-27T13:52:15.312Z,3.40
2022-10-27T13:54:58.279Z,3.17
2022-10-27T13:57:48.070Z,3.35
2022-10-27T14:00:18.309Z,4.20
2022-10-27T14:03:05.228Z,3.92
2022-10-27T14:05:39.259Z,4.40
2022-10-27T14:08:42.697Z,3.80
2022-10-27T14:11:15.477Z,4.85
2022-10-27T14:13:52.778Z,5.35
2022-10-27T14:16:24.788Z,4.28
2022-10-27T14:19:13.466Z,4.47
2022-10-27T14:21:49.756Z,3.58
2022-10-27T14:24:25.007Z,4.97
2022-10-27T14:27:00.383Z,4.80
2022-10-27T14:29:27.718Z,4.90
2022-10-27T14:32:21.931Z,4.82
2022-10-27T14:34:49.599Z,3.05
2022-10-27T14:37:36.791Z,4.30
2022-10-27T14:40:04.039Z,5.72
2022-10-27T14:42:33.024Z,4.60
2022-10-27T14:45:26.178Z,4.47
2022-10-27T14:48:05.794Z,5.85
2022-10-27T14:50:41.341Z,5.80
2022-10-27T14:53:26.231Z,5.82
2022-10-27T14:56:28.104Z,6.10
2022-10-27T14:58:58.736Z,5.30
2022-10-27T15:01:36.931Z,6.15
2022-10-27T15:04:24.415Z,6.78
2022-10-27T15:07:05.461Z,5.50
2022-10-27T15:09:37.278Z,6.63
2022-10-27T15:12:30.459Z,6.20
2022-10-27T15:15:00.422Z,9.23
2022-10-27T15:20:02.160Z,8.15
2022-10-27T15:22:30.187Z,8.35
2022-10-27T15:24:58.389Z,13.38
2022-10-27T15:27:33.344Z,14.80
2022-10-27T15:30:01.716Z,18.88
2022-10-27T15:32:32.928Z,23.45
2022-10-27T15:35:00.968Z,23.60
2022-10-27T15:37:32.004Z,22.15
2022-10-27T15:40:45.202Z,24.33
2022-10-27T15:43:22.790Z,26.08
2022-10-27T15:45:50.907Z,25.77
2022-10-27T15:48:34.911Z,27.17
2022-10-27T15:51:05.468Z,28.23
2022-10-27T15:53:36.543Z,28.83
2022-10-27T15:56:06.813Z,34.58
2022-10-27T15:58:42.814Z,34.25
2022-10-27T16:01:32.545Z,32.95
2022-10-27T16:04:24.204Z,31.38
2022-10-27T16:06:51.126Z,33.15
2022-10-27T16:09:40.797Z,32.33
2022-10-27T16:12:16.263Z,34.05
2022-10-27T16:14:49.510Z,34.83
2022-10-27T16:17:20.870Z,36.08
2022-10-27T16:19:48.610Z,35.08
2022-10-27T16:22:20.925Z,33.90
2022-10-27T16:24:48.633Z,34.38
2022-10-27T16:27:22.675Z,30.50
2022-10-27T16:29:58.471Z,31.70
2022-10-27T16:32:27.872Z,31.10
2022-10-27T16:34:55.298Z,31.85
2022-10-27T16:37:26.126Z,32.42
2022-10-27T16:39:53.587Z,31.02
2022-10-27T16:42:21.409Z,30.27
2022-10-27T16:47:20.971Z,27.27
2022-10-27T16:49:58.342Z,27.30
2022-10-27T16:52:27.035Z,23.70
2022-10-27T16:54:53.942Z,21.27
2022-10-27T16:59:49.934Z,19.20
2022-10-27T17:02:17.500Z,17.65
2022-10-27T17:04:45.899Z,16.98
2022-10-27T17:07:13.563Z,14.85
2022-10-27T17:09:41.672Z,15.23
2022-10-27T17:12:09.424Z,15.02
2022-10-27T17:14:36.846Z,19.35
2022-10-27T17:17:04.630Z,17.38
2022-10-27T17:19:31.534Z,18.27
2022-10-27T17:21:58.450Z,17.42
2022-10-27T17:24:27.437Z,17.45
2022-10-27T17:26:55.442Z,17.00
2022-10-27T17:29:26.197Z,16.77
2022-10-27T17:31:56.952Z,17.70
2022-10-27T17:34:24.409Z,18.27
2022-10-27T17:36:57.920Z,18.25
2022-10-27T17:39:26.056Z,18.48
2022-10-27T17:41:52.925Z,18.23
2022-10-27T17:44:19.801Z,19.63
2022-10-27T17:46:46.727Z,19.83
2022-10-27T17:49:14.247Z,19.80
2022-10-27T17:51:41.138Z,20.80
2022-10-27T17:54:12.969Z,21.92
2022-10-27T17:56:39.865Z,22.67
2022-10-27T17:59:13.441Z,23.60
2022-10-27T18:01:42.810Z,24.42
2022-10-27T18:04:11.543Z,25.40
2022-10-27T18:06:40.050Z,24.45
2022-10-27T18:09:07.779Z,24.63
2022-10-27T18:11:37.139Z,24.25
2022-10-27T18:14:05.845Z,25.15
2022-10-27T18:16:34.394Z,23.35
2022-10-27T18:19:09.356Z,23.30
2022-10-27T18:21:39.856Z,24.25
2022-10-27T18:24:09.192Z,22.70
2022-10-27T18:26:37.676Z,24.67
2022-10-27T18:29:05.649Z,21.83
2022-10-27T18:31:36.330Z,19.75
2022-10-27T18:34:07.912Z,19.77
2022-10-27T18:36:35.391Z,20.70
2022-10-27T18:39:03.740Z,19.67
2022-10-27T18:41:36.002Z,14.93
2022-10-27T18:44:03.331Z,13.65
2022-10-27T18:46:30.454Z,11.80
2022-10-27T18:48:59.803Z,9.88
2022-10-27T18:51:30.244Z,10.15
2022-10-27T18:54:05.744Z,8.73
2022-10-27T18:56:33.263Z,10.10
2022-10-27T18:59:04.264Z,9.40
2022-10-27T19:01:31.389Z,9.63
2022-10-27T19:04:01.584Z,10.15
2022-10-27T19:06:31.433Z,10.60
2022-10-27T19:08:59.126Z,11.35
2022-10-27T19:11:26.288Z,14.88
2022-10-27T19:13:54.903Z,18.52
2022-10-27T19:16:25.696Z,18.48
2022-10-27T19:18:55.966Z,18.13
2022-10-27T19:21:23.271Z,18.15
2022-10-27T19:23:58.242Z,19.50
2022-10-27T19:26:29.188Z,20.05
2022-10-27T19:28:59.754Z,19.50
2022-10-27T19:31:30.636Z,17.98
2022-10-27T19:33:59.289Z,18.63
2022-10-27T19:36:30.030Z,16.88
2022-10-27T19:38:58.683Z,16.92
2022-10-27T19:41:30.176Z,16.85
2022-10-27T19:43:57.635Z,14.30
2022-10-27T19:46:27.162Z,14.15
2022-10-27T19:48:56.511Z,14.10
2022-10-27T19:51:29.904Z,14.52
2022-10-27T19:53:57.725Z,13.27
2022-10-27T19:56:26.924Z,13.85
2022-10-27T19:58:58.238Z,14.77
2022-10-27T20:01:28.980Z,14.02
2022-10-27T20:03:56.360Z,13.30
2022-10-27T20:06:24.189Z,12.77
2022-10-27T20:08:55.797Z,13.45
2022-10-27T20:11:25.333Z,12.60
2022-10-27T20:13:55.020Z,13.02
2022-10-27T20:16:28.320Z,12.77
2022-10-27T20:18:56.438Z,11.30
2022-10-27T20:21:23.314Z,12.55
2022-10-27T20:23:50.154Z,13.15
2022-10-27T20:26:34.188Z,11.70
2022-10-27T20:29:02.249Z,11.50
2022-10-27T20:31:29.542Z,12.05
2022-10-27T20:33:57.075Z,12.40
2022-10-27T20:36:24.493Z,12.63
2022-10-27T20:38:52.653Z,13.60
2022-10-27T20:41:22.882Z,13.05
2022-10-27T20:43:56.983Z,12.98
2022-10-27T20:46:26.049Z,12.95
2022-10-27T20:48:54.415Z,13.50
2022-10-27T20:51:23.326Z,13.27
2022-10-27T20:53:51.056Z,12.25
2022-10-27T20:56:21.879Z,15.10
2022-10-27T20:58:49.482Z,14.57
2022-10-27T21:01:32.279Z,16.27
2022-10-27T21:04:01.273Z,15.27
2022-10-27T21:06:29.376Z,16.02
2022-10-27T21:08:59.309Z,16.95
2022-10-27T21:13:55.861Z,17.10
2022-10-27T21:16:22.931Z,16.17
2022-10-27T21:18:54.566Z,17.30
2022-10-27T21:21:23.250Z,15.93
2022-10-27T21:23:50.872Z,16.95
2022-10-27T21:26:18.494Z,16.70
2022-10-27T21:28:52.123Z,17.88
2022-10-27T21:31:20.810Z,17.45
2022-10-27T21:33:47.664Z,17.35
2022-10-27T21:36:14.652Z,16.13
2022-10-27T21:38:46.504Z,17.02
2022-10-27T21:41:15.804Z,18.00
2022-10-27T21:43:44.972Z,18.02
2022-10-27T21:46:14.849Z,17.70
2022-10-27T21:51:11.050Z,17.33
2022-10-27T21:53:38.170Z,18.27
2022-10-27T21:56:07.674Z,17.85
2022-10-27T21:58:38.926Z,17.08
2022-10-27T22:01:05.974Z,17.33
2022-10-27T22:03:33.533Z,17.95
2022-10-27T22:06:00.411Z,17.70
2022-10-27T22:08:27.438Z,17.65
2022-10-27T22:10:54.420Z,17.95
2022-10-27T22:13:21.473Z,17.77
2022-10-27T22:15:48.309Z,17.70
2022-10-27T22:18:15.173Z,17.50
2022-10-27T22:20:42.043Z,18.08
2022-10-27T22:23:08.937Z,16.83
2022-10-27T22:25:40.517Z,16.00
2022-10-27T22:28:08.354Z,16.95
2022-10-27T22:30:38.766Z,18.35
2022-10-27T22:33:06.042Z,18.02
2022-10-27T22:35:33.484Z,18.98
2022-10-27T22:38:00.395Z,18.25
2022-10-27T22:40:27.487Z,19.30
2022-10-27T22:42:54.338Z,18.35
2022-10-27T22:45:21.271Z,17.38
2022-10-27T22:47:48.120Z,18.00
2022-10-27T22:50:15.016Z,16.80
2022-10-27T22:52:41.868Z,17.80
2022-10-27T22:55:09.212Z,16.73
2022-10-27T22:57:36.105Z,17.45
2022-10-27T23:00:03.654Z,18.05
2022-10-27T23:02:30.542Z,17.13
2022-10-27T23:04:57.435Z,16.90
2022-10-27T23:07:24.294Z,17.80
2022-10-27T23:09:51.147Z,16.50
2022-10-27T23:12:18.023Z,15.88
2022-10-27T23:14:47.497Z,16.02
2022-10-27T23:17:17.207Z,16.02
2022-10-27T23:19:44.051Z,14.98
2022-10-27T23:22:10.895Z,14.60
2022-10-27T23:24:37.754Z,14.80
2022-10-27T23:27:04.603Z,14.50
2022-10-27T23:29:31.503Z,13.80
2022-10-27T23:31:58.331Z,15.57
2022-10-27T23:34:25.193Z,14.30
2022-10-27T23:36:52.051Z,13.75
2022-10-27T23:39:18.894Z,13.88
2022-10-27T23:41:45.783Z,13.40
2022-10-27T23:44:12.657Z,13.27
2022-10-27T23:46:39.590Z,13.57
2022-10-27T23:49:06.708Z,14.05
2022-10-27T23:51:33.575Z,13.43
2022-10-27T23:54:00.404Z,12.45
2022-10-27T23:56:27.285Z,12.52
2022-10-27T23:58:54.960Z,12.50
